sensor_id;sensor_type;location;lat;lon;timestamp;temperature;humidity
74458;SHT31;62896;51.032;3.712;2023-09-19T00:00:30;15.2;71
74458;SHT31;62896;51.032;3.712;2023-09-19T00:03:50;15.2;71
74458;SHT31;62896;51.032;3.712;2023-09-19T00:07:10;15.2;71
74458;SHT31;62896;51.032;3.712;2023-09-19T00:10:30;15.1;73
74458;SHT31;62896;51.032;3.712;2023-09-19T00:13:50;15.1;73
74458;SHT31;62896;51.032;3.712;2023-09-19T00:17:10;15.1;73
74458;SHT31;62896;51.032;3.712;2023-09-19T00:20:30;15.1;73
74458;SHT31;62896;51.032;3.712;2023-09-19T00:23:50;15.1;73
74458;SHT31;62896;51.032;3.712;2023-09-19T00:27:10;15.1;73
74458;SHT31;62896;51.032;3.712;2023-09-19T00:30:30;15;75
74458;SHT31;62896;51.032;3.712;2023-09-19T00:33:50;15;75
74458;SHT31;62896;51.032;3.712;2023-09-19T00:37:10;15;75
74458;SHT31;62896;51.032;3.712;2023-09-19T00:40:30;14.9;75
74458;SHT31;62896;51.032;3.712;2023-09-19T00:43:50;14.9;75
74458;SHT31;62896;51.032;3.712;2023-09-19T00:47:10;14.9;75
74458;SHT31;62896;51.032;3.712;2023-09-19T00:50:30;14.8;75
74458;SHT31;62896;51.032;3.712;2023-09-19T00:53:50;14.8;75
74458;SHT31;62896;51.032;3.712;2023-09-19T00:57:10;14.8;75
74458;SHT31;62896;51.032;3.712;2023-09-19T01:00:30;14.7;76
74458;SHT31;62896;51.032;3.712;2023-09-19T01:03:50;14.7;76
74458;SHT31;62896;51.032;3.712;2023-09-19T01:07:10;14.7;76
74458;SHT31;62896;51.032;3.712;2023-09-19T01:10:30;14.6;77
74458;SHT31;62896;51.032;3.712;2023-09-19T01:13:53;14.6;77
74458;SHT31;62896;51.032;3.712;2023-09-19T01:17:14;14.6;77
74458;SHT31;62896;51.032;3.712;2023-09-19T01:20:33;14.6;78
74458;SHT31;62896;51.032;3.712;2023-09-19T01:24:04;14.6;78
74458;SHT31;62896;51.032;3.712;2023-09-19T01:27:21;14.6;78
74458;SHT31;62896;51.032;3.712;2023-09-19T01:30:31;14.6;78
74458;SHT31;62896;51.032;3.712;2023-09-19T01:33:53;14.6;78
74458;SHT31;62896;51.032;3.712;2023-09-19T01:37:10;14.6;78
74458;SHT31;62896;51.032;3.712;2023-09-19T01:40:30;14.6;79
74458;SHT31;62896;51.032;3.712;2023-09-19T01:43:50;14.6;79
74458;SHT31;62896;51.032;3.712;2023-09-19T01:47:13;14.6;79
74458;SHT31;62896;51.032;3.712;2023-09-19T01:50:30;14.7;79
74458;SHT31;62896;51.032;3.712;2023-09-19T01:53:51;14.7;79
74458;SHT31;62896;51.032;3.712;2023-09-19T01:57:13;14.7;79
74458;SHT31;62896;51.032;3.712;2023-09-19T02:00:30;14.8;80
74458;SHT31;62896;51.032;3.712;2023-09-19T02:03:50;14.8;80
74458;SHT31;62896;51.032;3.712;2023-09-19T02:07:10;14.8;80
74458;SHT31;62896;51.032;3.712;2023-09-19T02:10:30;14.7;80
74458;SHT31;62896;51.032;3.712;2023-09-19T02:13:50;14.7;80
74458;SHT31;62896;51.032;3.712;2023-09-19T02:17:10;14.7;80
74458;SHT31;62896;51.032;3.712;2023-09-19T02:20:30;14.7;80
74458;SHT31;62896;51.032;3.712;2023-09-19T02:23:50;14.7;80
74458;SHT31;62896;51.032;3.712;2023-09-19T02:27:10;14.7;80
74458;SHT31;62896;51.032;3.712;2023-09-19T02:30:30;14.8;79
74458;SHT31;62896;51.032;3.712;2023-09-19T02:33:50;14.8;79
74458;SHT31;62896;51.032;3.712;2023-09-19T02:37:10;14.8;79
74458;SHT31;62896;51.032;3.712;2023-09-19T02:40:30;14.9;79
74458;SHT31;62896;51.032;3.712;2023-09-19T02:43:50;14.9;79
74458;SHT31;62896;51.032;3.712;2023-09-19T02:47:10;14.9;79
74458;SHT31;62896;51.032;3.712;2023-09-19T02:50:30;15.1;79
74458;SHT31;62896;51.032;3.712;2023-09-19T02:53:50;15.1;79
74458;SHT31;62896;51.032;3.712;2023-09-19T02:57:10;15.1;79
74458;SHT31;62896;51.032;3.712;2023-09-19T03:00:30;15.1;80
74458;SHT31;62896;51.032;3.712;2023-09-19T03:03:50;15.1;80
74458;SHT31;62896;51.032;3.712;2023-09-19T03:07:10;15.1;80
74458;SHT31;62896;51.032;3.712;2023-09-19T03:10:30;15;82
74458;SHT31;62896;51.032;3.712;2023-09-19T03:13:51;15;82
74458;SHT31;62896;51.032;3.712;2023-09-19T03:17:10;15;82
74458;SHT31;62896;51.032;3.712;2023-09-19T03:20:30;14.8;84
74458;SHT31;62896;51.032;3.712;2023-09-19T03:23:50;14.8;84
74458;SHT31;62896;51.032;3.712;2023-09-19T03:27:10;14.8;84
74458;SHT31;62896;51.032;3.712;2023-09-19T03:30:30;14.7;85
74458;SHT31;62896;51.032;3.712;2023-09-19T03:33:50;14.7;85
74458;SHT31;62896;51.032;3.712;2023-09-19T03:37:10;14.7;85
74458;SHT31;62896;51.032;3.712;2023-09-19T03:40:30;14.5;86
74458;SHT31;62896;51.032;3.712;2023-09-19T03:43:50;14.5;86
74458;SHT31;62896;51.032;3.712;2023-09-19T03:47:10;14.5;86
74458;SHT31;62896;51.032;3.712;2023-09-19T03:50:30;14.4;86
74458;SHT31;62896;51.032;3.712;2023-09-19T03:53:50;14.4;86
74458;SHT31;62896;51.032;3.712;2023-09-19T03:57:10;14.4;86
74458;SHT31;62896;51.032;3.712;2023-09-19T04:00:30;14.4;86
74458;SHT31;62896;51.032;3.712;2023-09-19T04:03:50;14.4;86
74458;SHT31;62896;51.032;3.712;2023-09-19T04:07:10;14.4;86
74458;SHT31;62896;51.032;3.712;2023-09-19T04:10:30;14.2;87
74458;SHT31;62896;51.032;3.712;2023-09-19T04:13:50;14.2;87
74458;SHT31;62896;51.032;3.712;2023-09-19T04:17:10;14.2;87
74458;SHT31;62896;51.032;3.712;2023-09-19T04:20:30;14.1;87
74458;SHT31;62896;51.032;3.712;2023-09-19T04:23:50;14.1;87
74458;SHT31;62896;51.032;3.712;2023-09-19T04:27:10;14.1;87
74458;SHT31;62896;51.032;3.712;2023-09-19T04:30:30;14;88
74458;SHT31;62896;51.032;3.712;2023-09-19T04:33:50;14;88
74458;SHT31;62896;51.032;3.712;2023-09-19T04:37:10;14;88
74458;SHT31;62896;51.032;3.712;2023-09-19T04:40:30;14;88
74458;SHT31;62896;51.032;3.712;2023-09-19T04:43:50;14;88
74458;SHT31;62896;51.032;3.712;2023-09-19T04:47:10;14;88
74458;SHT31;62896;51.032;3.712;2023-09-19T04:50:30;14;88
74458;SHT31;62896;51.032;3.712;2023-09-19T04:53:50;14;88
74458;SHT31;62896;51.032;3.712;2023-09-19T04:57:10;14;88
74458;SHT31;62896;51.032;3.712;2023-09-19T05:00:30;14.1;88
74458;SHT31;62896;51.032;3.712;2023-09-19T05:03:50;14.1;88
74458;SHT31;62896;51.032;3.712;2023-09-19T05:07:10;14.1;88
74458;SHT31;62896;51.032;3.712;2023-09-19T05:10:30;14.1;88
74458;SHT31;62896;51.032;3.712;2023-09-19T05:13:50;14.1;88
74458;SHT31;62896;51.032;3.712;2023-09-19T05:17:10;14.1;88
74458;SHT31;62896;51.032;3.712;2023-09-19T05:20:30;14.1;89
74458;SHT31;62896;51.032;3.712;2023-09-19T05:23:51;14.1;89
74458;SHT31;62896;51.032;3.712;2023-09-19T05:27:10;14.1;89
74458;SHT31;62896;51.032;3.712;2023-09-19T05:30:30;14;89
74458;SHT31;62896;51.032;3.712;2023-09-19T05:33:50;14;89
74458;SHT31;62896;51.032;3.712;2023-09-19T05:37:10;14;89
74458;SHT31;62896;51.032;3.712;2023-09-19T05:40:30;14;90
74458;SHT31;62896;51.032;3.712;2023-09-19T05:43:50;14;90
74458;SHT31;62896;51.032;3.712;2023-09-19T05:47:10;14;90
74458;SHT31;62896;51.032;3.712;2023-09-19T05:50:30;14.1;89
74458;SHT31;62896;51.032;3.712;2023-09-19T05:53:50;14.1;89
74458;SHT31;62896;51.032;3.712;2023-09-19T05:57:10;14.1;89
74458;SHT31;62896;51.032;3.712;2023-09-19T06:00:30;14.1;89
74458;SHT31;62896;51.032;3.712;2023-09-19T06:03:50;14.1;89
74458;SHT31;62896;51.032;3.712;2023-09-19T06:07:10;14.1;89
74458;SHT31;62896;51.032;3.712;2023-09-19T06:10:30;14.2;89
74458;SHT31;62896;51.032;3.712;2023-09-19T06:13:50;14.2;89
74458;SHT31;62896;51.032;3.712;2023-09-19T06:17:10;14.2;89
74458;SHT31;62896;51.032;3.712;2023-09-19T06:20:30;14.4;89
74458;SHT31;62896;51.032;3.712;2023-09-19T06:23:50;14.4;89
74458;SHT31;62896;51.032;3.712;2023-09-19T06:27:10;14.4;89
74458;SHT31;62896;51.032;3.712;2023-09-19T06:30:30;14.5;89
74458;SHT31;62896;51.032;3.712;2023-09-19T06:33:50;14.5;89
74458;SHT31;62896;51.032;3.712;2023-09-19T06:37:10;14.5;89
74458;SHT31;62896;51.032;3.712;2023-09-19T06:40:30;14.6;88
74458;SHT31;62896;51.032;3.712;2023-09-19T06:43:50;14.6;88
74458;SHT31;62896;51.032;3.712;2023-09-19T06:47:10;14.6;88
74458;SHT31;62896;51.032;3.712;2023-09-19T06:50:30;14.7;88
74458;SHT31;62896;51.032;3.712;2023-09-19T06:53:50;14.7;88
74458;SHT31;62896;51.032;3.712;2023-09-19T06:57:10;14.7;88
74458;SHT31;62896;51.032;3.712;2023-09-19T07:00:30;14.9;87
74458;SHT31;62896;51.032;3.712;2023-09-19T07:03:50;14.9;87
74458;SHT31;62896;51.032;3.712;2023-09-19T07:07:10;14.9;87
74458;SHT31;62896;51.032;3.712;2023-09-19T07:10:30;15.1;87
74458;SHT31;62896;51.032;3.712;2023-09-19T07:13:50;15.1;87
74458;SHT31;62896;51.032;3.712;2023-09-19T07:17:10;15.1;87
74458;SHT31;62896;51.032;3.712;2023-09-19T07:20:30;15.4;85
74458;SHT31;62896;51.032;3.712;2023-09-19T07:23:50;15.4;85
74458;SHT31;62896;51.032;3.712;2023-09-19T07:27:10;15.4;85
74458;SHT31;62896;51.032;3.712;2023-09-19T07:30:30;15.7;85
74458;SHT31;62896;51.032;3.712;2023-09-19T07:33:50;15.7;85
74458;SHT31;62896;51.032;3.712;2023-09-19T07:37:10;15.7;85
74458;SHT31;62896;51.032;3.712;2023-09-19T07:40:30;15.9;84
74458;SHT31;62896;51.032;3.712;2023-09-19T07:43:50;15.9;84
74458;SHT31;62896;51.032;3.712;2023-09-19T07:47:10;15.9;84
74458;SHT31;62896;51.032;3.712;2023-09-19T07:50:30;16.3;82
74458;SHT31;62896;51.032;3.712;2023-09-19T07:53:50;16.3;82
74458;SHT31;62896;51.032;3.712;2023-09-19T07:57:10;16.3;82
74458;SHT31;62896;51.032;3.712;2023-09-19T08:00:30;16.6;81
74458;SHT31;62896;51.032;3.712;2023-09-19T08:03:50;16.6;81
74458;SHT31;62896;51.032;3.712;2023-09-19T08:07:10;16.6;81
74458;SHT31;62896;51.032;3.712;2023-09-19T08:10:30;16.8;80
74458;SHT31;62896;51.032;3.712;2023-09-19T08:13:50;16.8;80
74458;SHT31;62896;51.032;3.712;2023-09-19T08:17:10;16.8;80
74458;SHT31;62896;51.032;3.712;2023-09-19T08:20:30;17.2;79
74458;SHT31;62896;51.032;3.712;2023-09-19T08:23:50;17.2;79
74458;SHT31;62896;51.032;3.712;2023-09-19T08:27:10;17.2;79
74458;SHT31;62896;51.032;3.712;2023-09-19T08:30:30;17.3;78
74458;SHT31;62896;51.032;3.712;2023-09-19T08:33:50;17.3;78
74458;SHT31;62896;51.032;3.712;2023-09-19T08:37:10;17.3;78
74458;SHT31;62896;51.032;3.712;2023-09-19T08:40:30;17.5;77
74458;SHT31;62896;51.032;3.712;2023-09-19T08:43:50;17.5;77
74458;SHT31;62896;51.032;3.712;2023-09-19T08:47:11;17.5;77
74458;SHT31;62896;51.032;3.712;2023-09-19T08:50:30;17.6;76
74458;SHT31;62896;51.032;3.712;2023-09-19T08:53:51;17.6;76
74458;SHT31;62896;51.032;3.712;2023-09-19T08:57:10;17.6;76
74458;SHT31;62896;51.032;3.712;2023-09-19T09:00:30;17.8;75
74458;SHT31;62896;51.032;3.712;2023-09-19T09:03:51;17.8;75
74458;SHT31;62896;51.032;3.712;2023-09-19T09:07:10;17.8;75
74458;SHT31;62896;51.032;3.712;2023-09-19T09:10:30;18;75
74458;SHT31;62896;51.032;3.712;2023-09-19T09:13:50;18;75
74458;SHT31;62896;51.032;3.712;2023-09-19T09:17:11;18;75
74458;SHT31;62896;51.032;3.712;2023-09-19T09:20:30;18;75
74458;SHT31;62896;51.032;3.712;2023-09-19T09:23:50;18;75
74458;SHT31;62896;51.032;3.712;2023-09-19T09:27:10;18;75
74458;SHT31;62896;51.032;3.712;2023-09-19T09:30:34;17.8;75
74458;SHT31;62896;51.032;3.712;2023-09-19T09:33:54;17.8;75
74458;SHT31;62896;51.032;3.712;2023-09-19T09:37:12;17.8;75
74458;SHT31;62896;51.032;3.712;2023-09-19T09:40:34;17.8;75
74458;SHT31;62896;51.032;3.712;2023-09-19T09:43:50;17.8;75
74458;SHT31;62896;51.032;3.712;2023-09-19T09:47:10;17.8;75
74458;SHT31;62896;51.032;3.712;2023-09-19T09:50:31;18.2;74
74458;SHT31;62896;51.032;3.712;2023-09-19T09:53:50;18.2;74
74458;SHT31;62896;51.032;3.712;2023-09-19T09:57:10;18.2;74
74458;SHT31;62896;51.032;3.712;2023-09-19T10:00:30;18.5;74
74458;SHT31;62896;51.032;3.712;2023-09-19T10:03:50;18.5;74
74458;SHT31;62896;51.032;3.712;2023-09-19T10:07:21;18.5;74
74458;SHT31;62896;51.032;3.712;2023-09-19T10:10:31;19.3;72
74458;SHT31;62896;51.032;3.712;2023-09-19T10:13:50;19.3;72
74458;SHT31;62896;51.032;3.712;2023-09-19T10:17:11;19.3;72
74458;SHT31;62896;51.032;3.712;2023-09-19T10:20:30;19.7;70
74458;SHT31;62896;51.032;3.712;2023-09-19T10:23:50;19.7;70
74458;SHT31;62896;51.032;3.712;2023-09-19T10:27:10;19.7;70
74458;SHT31;62896;51.032;3.712;2023-09-19T10:30:31;19.7;69
74458;SHT31;62896;51.032;3.712;2023-09-19T10:33:50;19.7;69
74458;SHT31;62896;51.032;3.712;2023-09-19T10:37:10;19.7;69
74458;SHT31;62896;51.032;3.712;2023-09-19T10:40:32;19.7;69
74458;SHT31;62896;51.032;3.712;2023-09-19T10:43:50;19.7;69
74458;SHT31;62896;51.032;3.712;2023-09-19T10:47:10;19.7;69
74458;SHT31;62896;51.032;3.712;2023-09-19T10:50:31;20.1;67
74458;SHT31;62896;51.032;3.712;2023-09-19T10:53:51;20.1;67
74458;SHT31;62896;51.032;3.712;2023-09-19T10:57:10;20.1;67
74458;SHT31;62896;51.032;3.712;2023-09-19T11:00:30;20.3;66
74458;SHT31;62896;51.032;3.712;2023-09-19T11:03:50;20.3;66
74458;SHT31;62896;51.032;3.712;2023-09-19T11:07:11;20.3;66
74458;SHT31;62896;51.032;3.712;2023-09-19T11:10:46;20.3;66
74458;SHT31;62896;51.032;3.712;2023-09-19T11:14:07;20.3;66
74458;SHT31;62896;51.032;3.712;2023-09-19T11:17:34;20.3;66
74458;SHT31;62896;51.032;3.712;2023-09-19T11:20:30;20.8;64
74458;SHT31;62896;51.032;3.712;2023-09-19T11:24:04;20.8;64
74458;SHT31;62896;51.032;3.712;2023-09-19T11:27:11;20.8;64
74458;SHT31;62896;51.032;3.712;2023-09-19T11:30:31;20.7;64
74458;SHT31;62896;51.032;3.712;2023-09-19T11:33:50;20.7;64
74458;SHT31;62896;51.032;3.712;2023-09-19T11:38:14;20.7;64
74458;SHT31;62896;51.032;3.712;2023-09-19T11:40:30;21;64
74458;SHT31;62896;51.032;3.712;2023-09-19T11:43:51;21;64
74458;SHT31;62896;51.032;3.712;2023-09-19T11:47:10;21;64
74458;SHT31;62896;51.032;3.712;2023-09-19T11:50:30;21;64
74458;SHT31;62896;51.032;3.712;2023-09-19T11:53:51;21;64
74458;SHT31;62896;51.032;3.712;2023-09-19T11:57:10;21;64
74458;SHT31;62896;51.032;3.712;2023-09-19T12:00:30;20.5;66
74458;SHT31;62896;51.032;3.712;2023-09-19T12:03:53;20.5;66
74458;SHT31;62896;51.032;3.712;2023-09-19T12:07:11;20.5;66
74458;SHT31;62896;51.032;3.712;2023-09-19T12:10:30;20.3;66
74458;SHT31;62896;51.032;3.712;2023-09-19T12:13:50;20.3;66
74458;SHT31;62896;51.032;3.712;2023-09-19T12:17:10;20.3;66
74458;SHT31;62896;51.032;3.712;2023-09-19T12:20:41;21.1;65
74458;SHT31;62896;51.032;3.712;2023-09-19T12:24:03;21.1;65
74458;SHT31;62896;51.032;3.712;2023-09-19T12:27:10;21.1;65
74458;SHT31;62896;51.032;3.712;2023-09-19T12:30:30;20.9;65
74458;SHT31;62896;51.032;3.712;2023-09-19T12:33:52;20.9;65
74458;SHT31;62896;51.032;3.712;2023-09-19T12:37:11;20.9;65
74458;SHT31;62896;51.032;3.712;2023-09-19T12:40:30;20.7;66
74458;SHT31;62896;51.032;3.712;2023-09-19T12:43:50;20.7;66
74458;SHT31;62896;51.032;3.712;2023-09-19T12:47:11;20.7;66
74458;SHT31;62896;51.032;3.712;2023-09-19T12:50:30;20.8;65
74458;SHT31;62896;51.032;3.712;2023-09-19T12:53:56;20.8;65
74458;SHT31;62896;51.032;3.712;2023-09-19T12:57:22;20.8;65
74458;SHT31;62896;51.032;3.712;2023-09-19T13:00:31;20.7;66
74458;SHT31;62896;51.032;3.712;2023-09-19T13:04:10;20.7;66
74458;SHT31;62896;51.032;3.712;2023-09-19T13:07:16;20.7;66
74458;SHT31;62896;51.032;3.712;2023-09-19T13:10:30;20.4;66
74458;SHT31;62896;51.032;3.712;2023-09-19T13:13:51;20.4;66
74458;SHT31;62896;51.032;3.712;2023-09-19T13:17:11;20.4;66
74458;SHT31;62896;51.032;3.712;2023-09-19T13:20:31;20.5;66
74458;SHT31;62896;51.032;3.712;2023-09-19T13:23:51;20.5;66
74458;SHT31;62896;51.032;3.712;2023-09-19T13:27:10;20.5;66
74458;SHT31;62896;51.032;3.712;2023-09-19T13:30:30;20.7;66
74458;SHT31;62896;51.032;3.712;2023-09-19T13:33:50;20.7;66
74458;SHT31;62896;51.032;3.712;2023-09-19T13:37:11;20.7;66
74458;SHT31;62896;51.032;3.712;2023-09-19T13:40:30;20.6;67
74458;SHT31;62896;51.032;3.712;2023-09-19T13:43:50;20.6;67
74458;SHT31;62896;51.032;3.712;2023-09-19T13:47:10;20.6;67
74458;SHT31;62896;51.032;3.712;2023-09-19T13:50:30;20.4;68
74458;SHT31;62896;51.032;3.712;2023-09-19T13:53:50;20.4;68
74458;SHT31;62896;51.032;3.712;2023-09-19T13:57:11;20.4;68
74458;SHT31;62896;51.032;3.712;2023-09-19T14:00:30;20.2;68
74458;SHT31;62896;51.032;3.712;2023-09-19T14:03:50;20.2;68
74458;SHT31;62896;51.032;3.712;2023-09-19T14:07:10;20.2;68
74458;SHT31;62896;51.032;3.712;2023-09-19T14:10:31;20.2;67
74458;SHT31;62896;51.032;3.712;2023-09-19T14:13:51;20.2;67
74458;SHT31;62896;51.032;3.712;2023-09-19T14:17:10;20.2;67
74458;SHT31;62896;51.032;3.712;2023-09-19T14:20:31;20.1;68
74458;SHT31;62896;51.032;3.712;2023-09-19T14:23:51;20.1;68
74458;SHT31;62896;51.032;3.712;2023-09-19T14:27:11;20.1;68
74458;SHT31;62896;51.032;3.712;2023-09-19T14:30:31;19.9;69
74458;SHT31;62896;51.032;3.712;2023-09-19T14:33:53;19.9;69
74458;SHT31;62896;51.032;3.712;2023-09-19T14:37:11;19.9;69
74458;SHT31;62896;51.032;3.712;2023-09-19T14:40:31;19.8;69
74458;SHT31;62896;51.032;3.712;2023-09-19T14:43:51;19.8;69
74458;SHT31;62896;51.032;3.712;2023-09-19T14:47:11;19.8;69
74458;SHT31;62896;51.032;3.712;2023-09-19T14:50:31;19.8;69
74458;SHT31;62896;51.032;3.712;2023-09-19T14:53:51;19.8;69
74458;SHT31;62896;51.032;3.712;2023-09-19T14:57:11;19.8;69
74458;SHT31;62896;51.032;3.712;2023-09-19T15:00:31;19.9;69
74458;SHT31;62896;51.032;3.712;2023-09-19T15:03:51;19.9;69
74458;SHT31;62896;51.032;3.712;2023-09-19T15:07:11;19.9;69
74458;SHT31;62896;51.032;3.712;2023-09-19T15:10:31;19.8;70
74458;SHT31;62896;51.032;3.712;2023-09-19T15:13:51;19.8;70
74458;SHT31;62896;51.032;3.712;2023-09-19T15:17:11;19.8;70
74458;SHT31;62896;51.032;3.712;2023-09-19T15:20:31;19.6;70
74458;SHT31;62896;51.032;3.712;2023-09-19T15:23:51;19.6;70
74458;SHT31;62896;51.032;3.712;2023-09-19T15:27:11;19.6;70
74458;SHT31;62896;51.032;3.712;2023-09-19T15:30:31;19.5;70
74458;SHT31;62896;51.032;3.712;2023-09-19T15:33:51;19.5;70
74458;SHT31;62896;51.032;3.712;2023-09-19T15:37:11;19.5;70
74458;SHT31;62896;51.032;3.712;2023-09-19T15:40:31;19.5;70
74458;SHT31;62896;51.032;3.712;2023-09-19T15:43:51;19.5;70
74458;SHT31;62896;51.032;3.712;2023-09-19T15:47:11;19.5;70
74458;SHT31;62896;51.032;3.712;2023-09-19T15:50:31;19.4;71
74458;SHT31;62896;51.032;3.712;2023-09-19T15:53:51;19.4;71
74458;SHT31;62896;51.032;3.712;2023-09-19T15:57:11;19.4;71
74458;SHT31;62896;51.032;3.712;2023-09-19T16:00:31;19.4;72
74458;SHT31;62896;51.032;3.712;2023-09-19T16:03:51;19.4;72
74458;SHT31;62896;51.032;3.712;2023-09-19T16:07:11;19.4;72
74458;SHT31;62896;51.032;3.712;2023-09-19T16:10:33;19.4;72
74458;SHT31;62896;51.032;3.712;2023-09-19T16:13:51;19.4;72
74458;SHT31;62896;51.032;3.712;2023-09-19T16:17:11;19.4;72
74458;SHT31;62896;51.032;3.712;2023-09-19T16:20:31;19.2;73
74458;SHT31;62896;51.032;3.712;2023-09-19T16:23:51;19.2;73
74458;SHT31;62896;51.032;3.712;2023-09-19T16:27:11;19.2;73
74458;SHT31;62896;51.032;3.712;2023-09-19T16:30:31;18.9;76
74458;SHT31;62896;51.032;3.712;2023-09-19T16:33:51;18.9;76
74458;SHT31;62896;51.032;3.712;2023-09-19T16:37:11;18.9;76
74458;SHT31;62896;51.032;3.712;2023-09-19T16:40:31;18.5;79
74458;SHT31;62896;51.032;3.712;2023-09-19T16:43:51;18.5;79
74458;SHT31;62896;51.032;3.712;2023-09-19T16:47:11;18.5;79
74458;SHT31;62896;51.032;3.712;2023-09-19T16:50:31;18.1;81
74458;SHT31;62896;51.032;3.712;2023-09-19T16:53:51;18.1;81
74458;SHT31;62896;51.032;3.712;2023-09-19T16:57:11;18.1;81
74458;SHT31;62896;51.032;3.712;2023-09-19T17:00:31;17.8;83
74458;SHT31;62896;51.032;3.712;2023-09-19T17:03:51;17.8;83
74458;SHT31;62896;51.032;3.712;2023-09-19T17:07:11;17.8;83
74458;SHT31;62896;51.032;3.712;2023-09-19T17:10:31;17.6;85
74458;SHT31;62896;51.032;3.712;2023-09-19T17:13:51;17.6;85
74458;SHT31;62896;51.032;3.712;2023-09-19T17:17:11;17.6;85
74458;SHT31;62896;51.032;3.712;2023-09-19T17:20:31;17.5;86
74458;SHT31;62896;51.032;3.712;2023-09-19T17:23:51;17.5;86
74458;SHT31;62896;51.032;3.712;2023-09-19T17:27:11;17.5;86
74458;SHT31;62896;51.032;3.712;2023-09-19T17:30:31;17.4;86
74458;SHT31;62896;51.032;3.712;2023-09-19T17:33:51;17.4;86
74458;SHT31;62896;51.032;3.712;2023-09-19T17:37:11;17.4;86
74458;SHT31;62896;51.032;3.712;2023-09-19T17:40:38;17.5;86
74458;SHT31;62896;51.032;3.712;2023-09-19T17:43:51;17.5;86
74458;SHT31;62896;51.032;3.712;2023-09-19T17:47:11;17.5;86
74458;SHT31;62896;51.032;3.712;2023-09-19T17:50:31;17.6;85
74458;SHT31;62896;51.032;3.712;2023-09-19T17:53:51;17.6;85
74458;SHT31;62896;51.032;3.712;2023-09-19T17:57:11;17.6;85
74458;SHT31;62896;51.032;3.712;2023-09-19T18:00:31;17.6;85
74458;SHT31;62896;51.032;3.712;2023-09-19T18:03:51;17.6;85
74458;SHT31;62896;51.032;3.712;2023-09-19T18:07:11;17.6;85
74458;SHT31;62896;51.032;3.712;2023-09-19T18:10:31;17.7;84
74458;SHT31;62896;51.032;3.712;2023-09-19T18:13:51;17.7;84
74458;SHT31;62896;51.032;3.712;2023-09-19T18:17:11;17.7;84
74458;SHT31;62896;51.032;3.712;2023-09-19T18:20:32;17.8;83
74458;SHT31;62896;51.032;3.712;2023-09-19T18:23:51;17.8;83
74458;SHT31;62896;51.032;3.712;2023-09-19T18:27:11;17.8;83
74458;SHT31;62896;51.032;3.712;2023-09-19T18:30:31;17.9;82
74458;SHT31;62896;51.032;3.712;2023-09-19T18:33:51;17.9;82
74458;SHT31;62896;51.032;3.712;2023-09-19T18:37:11;17.9;82
74458;SHT31;62896;51.032;3.712;2023-09-19T18:40:31;18;82
74458;SHT31;62896;51.032;3.712;2023-09-19T18:43:51;18;82
74458;SHT31;62896;51.032;3.712;2023-09-19T18:47:11;18;82
74458;SHT31;62896;51.032;3.712;2023-09-19T18:50:31;18;81
74458;SHT31;62896;51.032;3.712;2023-09-19T18:53:51;18;81
74458;SHT31;62896;51.032;3.712;2023-09-19T18:57:11;18;81
74458;SHT31;62896;51.032;3.712;2023-09-19T19:00:31;18.1;81
74458;SHT31;62896;51.032;3.712;2023-09-19T19:03:51;18.1;81
74458;SHT31;62896;51.032;3.712;2023-09-19T19:07:11;18.1;81
74458;SHT31;62896;51.032;3.712;2023-09-19T19:10:31;18.1;81
74458;SHT31;62896;51.032;3.712;2023-09-19T19:13:51;18.1;81
74458;SHT31;62896;51.032;3.712;2023-09-19T19:17:11;18.1;81
74458;SHT31;62896;51.032;3.712;2023-09-19T19:20:31;18.2;80
74458;SHT31;62896;51.032;3.712;2023-09-19T19:23:51;18.2;80
74458;SHT31;62896;51.032;3.712;2023-09-19T19:27:11;18.2;80
74458;SHT31;62896;51.032;3.712;2023-09-19T19:30:31;18.3;80
74458;SHT31;62896;51.032;3.712;2023-09-19T19:33:51;18.3;80
74458;SHT31;62896;51.032;3.712;2023-09-19T19:37:11;18.3;80
74458;SHT31;62896;51.032;3.712;2023-09-19T19:40:31;18.4;79
74458;SHT31;62896;51.032;3.712;2023-09-19T19:43:51;18.4;79
74458;SHT31;62896;51.032;3.712;2023-09-19T19:47:11;18.4;79
74458;SHT31;62896;51.032;3.712;2023-09-19T19:50:31;18.3;80
74458;SHT31;62896;51.032;3.712;2023-09-19T19:53:51;18.3;80
74458;SHT31;62896;51.032;3.712;2023-09-19T19:57:11;18.3;80
74458;SHT31;62896;51.032;3.712;2023-09-19T20:00:31;18.3;80
74458;SHT31;62896;51.032;3.712;2023-09-19T20:03:51;18.3;80
74458;SHT31;62896;51.032;3.712;2023-09-19T20:07:11;18.3;80
74458;SHT31;62896;51.032;3.712;2023-09-19T20:10:31;18.4;80
74458;SHT31;62896;51.032;3.712;2023-09-19T20:13:51;18.4;80
74458;SHT31;62896;51.032;3.712;2023-09-19T20:17:11;18.4;80
74458;SHT31;62896;51.032;3.712;2023-09-19T20:20:31;18.4;79
74458;SHT31;62896;51.032;3.712;2023-09-19T20:23:51;18.4;79
74458;SHT31;62896;51.032;3.712;2023-09-19T20:27:11;18.4;79
74458;SHT31;62896;51.032;3.712;2023-09-19T20:30:31;18.5;79
74458;SHT31;62896;51.032;3.712;2023-09-19T20:33:51;18.5;79
74458;SHT31;62896;51.032;3.712;2023-09-19T20:37:11;18.5;79
74458;SHT31;62896;51.032;3.712;2023-09-19T20:40:31;18.5;79
74458;SHT31;62896;51.032;3.712;2023-09-19T20:43:51;18.5;79
74458;SHT31;62896;51.032;3.712;2023-09-19T20:47:11;18.5;79
74458;SHT31;62896;51.032;3.712;2023-09-19T20:50:31;18.5;79
74458;SHT31;62896;51.032;3.712;2023-09-19T20:53:52;18.5;79
74458;SHT31;62896;51.032;3.712;2023-09-19T20:57:11;18.5;79
74458;SHT31;62896;51.032;3.712;2023-09-19T21:00:31;18.5;79
74458;SHT31;62896;51.032;3.712;2023-09-19T21:03:51;18.5;79
74458;SHT31;62896;51.032;3.712;2023-09-19T21:07:11;18.5;79
74458;SHT31;62896;51.032;3.712;2023-09-19T21:10:31;18.5;78
74458;SHT31;62896;51.032;3.712;2023-09-19T21:13:51;18.5;78
74458;SHT31;62896;51.032;3.712;2023-09-19T21:17:11;18.5;78
74458;SHT31;62896;51.032;3.712;2023-09-19T21:20:32;18.6;78
74458;SHT31;62896;51.032;3.712;2023-09-19T21:23:51;18.6;78
74458;SHT31;62896;51.032;3.712;2023-09-19T21:27:11;18.6;78
74458;SHT31;62896;51.032;3.712;2023-09-19T21:30:31;18.6;78
74458;SHT31;62896;51.032;3.712;2023-09-19T21:33:51;18.6;78
74458;SHT31;62896;51.032;3.712;2023-09-19T21:37:11;18.6;78
74458;SHT31;62896;51.032;3.712;2023-09-19T21:40:31;18.6;78
74458;SHT31;62896;51.032;3.712;2023-09-19T21:43:51;18.6;78
74458;SHT31;62896;51.032;3.712;2023-09-19T21:47:11;18.6;78
74458;SHT31;62896;51.032;3.712;2023-09-19T21:50:31;18.6;78
74458;SHT31;62896;51.032;3.712;2023-09-19T21:53:51;18.6;78
74458;SHT31;62896;51.032;3.712;2023-09-19T21:57:11;18.6;78
74458;SHT31;62896;51.032;3.712;2023-09-19T22:00:31;18.5;78
74458;SHT31;62896;51.032;3.712;2023-09-19T22:03:51;18.5;78
74458;SHT31;62896;51.032;3.712;2023-09-19T22:07:11;18.5;78
74458;SHT31;62896;51.032;3.712;2023-09-19T22:10:31;18.5;79
74458;SHT31;62896;51.032;3.712;2023-09-19T22:13:51;18.5;79
74458;SHT31;62896;51.032;3.712;2023-09-19T22:17:11;18.5;79
74458;SHT31;62896;51.032;3.712;2023-09-19T22:20:31;18.5;79
74458;SHT31;62896;51.032;3.712;2023-09-19T22:23:51;18.5;79
74458;SHT31;62896;51.032;3.712;2023-09-19T22:27:11;18.5;79
74458;SHT31;62896;51.032;3.712;2023-09-19T22:30:32;18.6;78